Airport ID:1G3
Update Time (UTC):12/08/2022 21:51
Wind Speed (Knots):7
Wind Direction (Magnetic):30
Temperature (°C):24
Dew Point (°C):11
Humidity (%):44
Altimeter (inHg):30.17
Density Altitude (Feet):2300
Visibility:10+
Clouds (Hundreds of feet):***
Present Weather:
METAR:METAR 1G3 122150Z AUTO 03006G12KT 10SM 24/11 A3017 RMK A01

The data displayed is for advisory purposes only and is not to be used for flight planning or operations.